createdAt,value
2022-09-27T00:00:34.916Z,9.27
2022-09-27T00:01:34.950Z,9.27
2022-09-27T00:02:34.970Z,9.27
2022-09-27T00:03:34.895Z,9.27
2022-09-27T00:04:34.892Z,9.27
2022-09-27T00:05:34.877Z,9.27
2022-09-27T00:06:38.611Z,9.33
2022-09-27T00:07:34.913Z,9.27
2022-09-27T00:08:34.971Z,9.33
2022-09-27T00:09:34.875Z,9.27
2022-09-27T00:10:34.874Z,9.27
2022-09-27T00:11:34.868Z,9.27
2022-09-27T00:12:34.895Z,9.27
2022-09-27T00:13:34.868Z,9.27
2022-09-27T00:14:34.888Z,9.27
2022-09-27T00:15:34.990Z,9.21
2022-09-27T00:16:34.991Z,9.21
2022-09-27T00:17:34.895Z,9.21
2022-09-27T00:18:34.880Z,9.15
2022-09-27T00:19:34.885Z,9.15
2022-09-27T00:20:34.873Z,9.15
2022-09-27T00:21:34.956Z,9.15
2022-09-27T00:22:34.874Z,9.15
2022-09-27T00:23:34.930Z,9.1
2022-09-27T00:24:34.923Z,9.1
2022-09-27T00:25:34.881Z,9.1
2022-09-27T00:26:34.875Z,9.1
2022-09-27T00:27:34.883Z,9.1
2022-09-27T00:28:34.884Z,9.1
2022-09-27T00:29:34.883Z,9.1
2022-09-27T00:30:35.063Z,9.04
2022-09-27T00:31:35.002Z,9.04
2022-09-27T00:32:34.980Z,9.04
2022-09-27T00:33:34.998Z,9.04
2022-09-27T00:34:35.054Z,9.04
2022-09-27T00:35:34.922Z,9.1
2022-09-27T00:36:34.877Z,9.1
2022-09-27T00:37:34.878Z,9.1
2022-09-27T00:38:34.883Z,9.1
2022-09-27T00:39:34.927Z,9.1
2022-09-27T00:40:35.240Z,9.1
2022-09-27T00:41:34.871Z,9.1
2022-09-27T00:42:35.185Z,9.1
2022-09-27T00:43:34.894Z,9.1
2022-09-27T00:44:34.888Z,9.04
2022-09-27T00:45:34.883Z,9.1
2022-09-27T00:46:35.002Z,9.04
2022-09-27T00:47:34.916Z,9.04
2022-09-27T00:48:34.880Z,9.04
2022-09-27T00:49:34.872Z,8.98
2022-09-27T00:50:34.866Z,9.04
2022-09-27T00:51:34.863Z,9.04
2022-09-27T00:52:34.881Z,8.98
2022-09-27T00:53:34.865Z,9.04
2022-09-27T00:54:34.930Z,8.98
2022-09-27T00:55:34.985Z,8.98
2022-09-27T00:56:34.892Z,8.98
2022-09-27T00:57:34.894Z,8.98
2022-09-27T00:58:34.879Z,8.92
2022-09-27T00:59:34.874Z,8.92
2022-09-27T01:00:34.872Z,8.92
2022-09-27T01:01:34.940Z,8.92
2022-09-27T01:02:34.958Z,8.87
2022-09-27T01:03:34.971Z,8.87
2022-09-27T01:04:34.872Z,8.87
2022-09-27T01:05:34.888Z,8.87
2022-09-27T01:06:34.872Z,8.87
2022-09-27T01:07:34.873Z,8.87
2022-09-27T01:08:34.895Z,8.87
2022-09-27T01:09:34.990Z,8.87
2022-09-27T01:10:34.912Z,8.87
2022-09-27T01:11:34.915Z,8.87
2022-09-27T01:12:34.883Z,8.81
2022-09-27T01:13:34.873Z,8.81
2022-09-27T01:14:34.946Z,8.81
2022-09-27T01:15:34.952Z,8.81
2022-09-27T01:16:34.881Z,8.81
2022-09-27T01:17:34.876Z,8.87
2022-09-27T01:18:34.936Z,8.81
2022-09-27T01:19:34.884Z,8.81
2022-09-27T01:20:34.883Z,8.81
2022-09-27T01:21:34.890Z,8.81
2022-09-27T01:22:34.875Z,8.81
2022-09-27T01:23:34.888Z,8.81
2022-09-27T01:24:34.881Z,8.81
2022-09-27T01:25:34.866Z,8.81
2022-09-27T01:26:34.907Z,8.81
2022-09-27T01:27:34.890Z,8.81
2022-09-27T01:28:34.871Z,8.81
2022-09-27T01:29:34.867Z,8.81
2022-09-27T01:30:34.899Z,8.81
2022-09-27T01:31:34.957Z,8.81
2022-09-27T01:32:34.865Z,8.81
2022-09-27T01:33:34.898Z,8.81
2022-09-27T01:34:34.907Z,8.81
2022-09-27T01:35:34.869Z,8.81
2022-09-27T01:36:34.901Z,8.81
2022-09-27T01:37:34.868Z,8.81
2022-09-27T01:38:34.867Z,8.87
2022-09-27T01:39:34.870Z,8.87
2022-09-27T01:40:34.948Z,8.87
2022-09-27T01:41:34.923Z,8.87
2022-09-27T01:42:34.917Z,8.87
2022-09-27T01:43:34.879Z,8.81
2022-09-27T01:44:34.879Z,8.87
2022-09-27T01:45:34.905Z,8.87
2022-09-27T01:46:35.010Z,8.87
2022-09-27T01:47:34.908Z,8.87
2022-09-27T01:48:34.889Z,8.87
2022-09-27T01:49:34.911Z,8.87
2022-09-27T01:50:34.917Z,8.87
2022-09-27T01:51:34.873Z,8.87
2022-09-27T01:52:34.883Z,8.87
2022-09-27T01:53:34.872Z,8.87
2022-09-27T01:54:34.876Z,8.87
2022-09-27T01:55:34.877Z,8.87
2022-09-27T01:56:34.870Z,8.92
2022-09-27T01:57:34.919Z,8.92
2022-09-27T01:58:34.861Z,8.87
2022-09-27T01:59:34.875Z,8.87
2022-09-27T02:00:34.860Z,8.87
2022-09-27T02:01:34.938Z,8.87
2022-09-27T02:02:34.992Z,8.87
2022-09-27T02:03:34.870Z,8.87
2022-09-27T02:04:34.907Z,8.87
2022-09-27T02:05:34.928Z,8.87
2022-09-27T02:06:34.881Z,8.87
2022-09-27T02:07:34.863Z,8.87
2022-09-27T02:08:34.864Z,8.81
2022-09-27T02:09:34.859Z,8.81
2022-09-27T02:10:34.867Z,8.81
2022-09-27T02:11:34.869Z,8.81
2022-09-27T02:12:34.885Z,8.81
2022-09-27T02:13:34.891Z,8.81
2022-09-27T02:14:34.879Z,8.81
2022-09-27T02:15:34.923Z,8.81
2022-09-27T02:16:34.902Z,8.87
2022-09-27T02:17:34.880Z,8.81
2022-09-27T02:18:34.862Z,8.81
2022-09-27T02:19:34.871Z,8.81
2022-09-27T02:20:34.917Z,8.81
2022-09-27T02:21:34.914Z,8.81
2022-09-27T02:22:34.859Z,8.81
2022-09-27T02:23:34.860Z,8.81
2022-09-27T02:24:34.863Z,8.81
2022-09-27T02:25:34.862Z,8.81
2022-09-27T02:26:34.862Z,8.75
2022-09-27T02:27:34.951Z,8.81
2022-09-27T02:28:34.921Z,8.75
2022-09-27T02:29:34.903Z,8.75
2022-09-27T02:30:35.024Z,8.75
2022-09-27T02:31:35.055Z,8.75
2022-09-27T02:32:34.862Z,8.81
2022-09-27T02:33:35.057Z,8.81
2022-09-27T02:34:35.117Z,8.81
2022-09-27T02:35:34.961Z,8.81
2022-09-27T02:36:35.073Z,8.81
2022-09-27T02:37:35.130Z,8.81
2022-09-27T02:38:34.869Z,8.81
2022-09-27T02:39:34.867Z,8.81
2022-09-27T02:40:35.032Z,8.81
2022-09-27T02:41:34.872Z,8.81
2022-09-27T02:42:34.871Z,8.81
2022-09-27T02:43:34.949Z,8.81
2022-09-27T02:44:34.928Z,8.81
2022-09-27T02:45:34.863Z,8.75
2022-09-27T02:46:34.999Z,8.75
2022-09-27T02:47:34.899Z,8.81
2022-09-27T02:48:34.886Z,8.81
2022-09-27T02:49:34.876Z,8.81
2022-09-27T02:50:34.862Z,8.75
2022-09-27T02:51:34.905Z,8.75
2022-09-27T02:52:34.920Z,8.75
2022-09-27T02:53:34.847Z,8.81
2022-09-27T02:54:34.861Z,8.81
2022-09-27T02:55:34.869Z,8.81
2022-09-27T02:56:34.858Z,8.81
2022-09-27T02:57:34.880Z,8.81
2022-09-27T02:58:34.876Z,8.81
2022-09-27T02:59:34.918Z,8.81
2022-09-27T03:00:34.919Z,8.81
2022-09-27T03:01:34.933Z,8.81
2022-09-27T03:02:34.976Z,8.81
2022-09-27T03:03:34.865Z,8.81
2022-09-27T03:04:34.864Z,8.81
2022-09-27T03:05:34.881Z,8.81
2022-09-27T03:06:34.870Z,8.81
2022-09-27T03:07:34.910Z,8.81
2022-09-27T03:08:34.926Z,8.81
2022-09-27T03:09:34.878Z,8.81
2022-09-27T03:10:34.867Z,8.81
2022-09-27T03:11:35.116Z,8.81
2022-09-27T03:12:34.870Z,8.81
2022-09-27T03:13:45.806Z,8.81
2022-09-27T03:14:34.871Z,8.81
2022-09-27T03:15:34.910Z,8.81
2022-09-27T03:16:34.936Z,8.81
2022-09-27T03:17:34.871Z,8.81
2022-09-27T03:18:34.893Z,8.81
2022-09-27T03:19:34.888Z,8.81
2022-09-27T03:20:34.868Z,8.81
2022-09-27T03:21:34.861Z,8.81
2022-09-27T03:22:34.881Z,8.81
2022-09-27T03:23:34.893Z,8.81
2022-09-27T03:24:34.871Z,8.81
2022-09-27T03:25:34.903Z,8.81
2022-09-27T03:26:34.863Z,8.81
2022-09-27T03:27:34.879Z,8.81
2022-09-27T03:28:34.863Z,8.81
2022-09-27T03:29:34.854Z,8.81
2022-09-27T03:30:35.004Z,8.81
2022-09-27T03:31:34.898Z,8.81
2022-09-27T03:32:34.873Z,8.81
2022-09-27T03:33:34.890Z,8.81
2022-09-27T03:34:34.869Z,8.81
2022-09-27T03:35:34.882Z,8.81
2022-09-27T03:36:34.873Z,8.81
2022-09-27T03:37:34.893Z,8.81
2022-09-27T03:38:34.927Z,8.81
2022-09-27T03:39:34.911Z,8.81
2022-09-27T03:40:34.950Z,8.81
2022-09-27T03:41:34.865Z,8.81
2022-09-27T03:42:34.861Z,8.81
2022-09-27T03:43:34.859Z,8.81
2022-09-27T03:44:34.887Z,8.75
2022-09-27T03:45:34.859Z,8.81
2022-09-27T03:46:35.005Z,8.81
2022-09-27T03:47:34.901Z,8.75
2022-09-27T03:48:34.867Z,8.75
2022-09-27T03:49:34.886Z,8.75
2022-09-27T03:50:34.859Z,8.81
2022-09-27T03:51:34.858Z,8.81
2022-09-27T03:52:34.866Z,8.75
2022-09-27T03:53:34.855Z,8.81
2022-09-27T03:54:34.909Z,8.81
2022-09-27T03:55:34.955Z,8.81
2022-09-27T03:56:34.866Z,8.75
2022-09-27T03:57:34.873Z,8.75
2022-09-27T03:58:34.895Z,8.81
2022-09-27T03:59:34.946Z,8.81
2022-09-27T04:00:34.861Z,8.81
2022-09-27T04:01:34.924Z,8.81
2022-09-27T04:02:34.972Z,8.75
2022-09-27T04:03:34.856Z,8.7
2022-09-27T04:04:34.860Z,8.7
2022-09-27T04:05:34.866Z,8.7
2022-09-27T04:06:34.864Z,8.7
2022-09-27T04:07:34.852Z,8.7
2022-09-27T04:08:34.859Z,8.7
2022-09-27T04:09:34.893Z,8.7
2022-09-27T04:10:34.912Z,8.7
2022-09-27T04:11:34.867Z,8.75
2022-09-27T04:12:34.847Z,8.75
2022-09-27T04:13:34.851Z,8.7
2022-09-27T04:14:34.875Z,8.7
2022-09-27T04:15:34.861Z,8.7
2022-09-27T04:16:34.896Z,8.7
2022-09-27T04:17:34.911Z,8.64
2022-09-27T04:18:34.902Z,8.64
2022-09-27T04:19:34.855Z,8.64
2022-09-27T04:20:34.883Z,8.59
2022-09-27T04:21:34.861Z,8.59
2022-09-27T04:22:34.857Z,8.59
2022-09-27T04:23:34.884Z,8.59
2022-09-27T04:24:34.855Z,8.64
2022-09-27T04:25:34.897Z,8.59
2022-09-27T04:26:34.902Z,8.59
2022-09-27T04:27:34.979Z,8.64
2022-09-27T04:28:35.041Z,8.59
2022-09-27T04:29:35.049Z,8.64
2022-09-27T04:30:35.013Z,8.59
2022-09-27T04:31:35.013Z,8.59
2022-09-27T04:32:35.081Z,8.59
2022-09-27T04:33:35.207Z,8.59
2022-09-27T04:34:35.193Z,8.59
2022-09-27T04:35:35.212Z,8.59
2022-09-27T04:36:35.142Z,8.59
2022-09-27T04:37:35.083Z,8.53
2022-09-27T04:38:34.856Z,8.53
2022-09-27T04:39:34.844Z,8.59
2022-09-27T04:40:34.925Z,8.59
2022-09-27T04:41:34.898Z,8.59
2022-09-27T04:42:34.868Z,8.59
2022-09-27T04:43:34.872Z,8.59
2022-09-27T04:44:34.879Z,8.53
2022-09-27T04:45:34.858Z,8.53
2022-09-27T04:46:34.960Z,8.53
2022-09-27T04:47:34.854Z,8.53
2022-09-27T04:48:34.891Z,8.53
2022-09-27T04:49:34.903Z,8.53
2022-09-27T04:50:36.498Z,8.48
2022-09-27T04:51:34.877Z,8.48
2022-09-27T04:52:34.872Z,8.53
2022-09-27T04:53:34.862Z,8.53
2022-09-27T04:54:34.863Z,8.53
2022-09-27T04:55:34.860Z,8.53
2022-09-27T04:56:34.904Z,8.53
2022-09-27T04:57:34.907Z,8.53
2022-09-27T04:58:34.875Z,8.53
2022-09-27T04:59:34.851Z,8.53
2022-09-27T05:00:34.850Z,8.53
2022-09-27T05:01:34.908Z,8.53
2022-09-27T05:02:34.982Z,8.53
2022-09-27T05:03:34.864Z,8.53
2022-09-27T05:04:34.903Z,8.53
2022-09-27T05:05:34.893Z,8.53
2022-09-27T05:06:34.863Z,8.53
2022-09-27T05:07:34.860Z,8.59
2022-09-27T05:08:34.856Z,8.53
2022-09-27T05:09:34.867Z,8.53
2022-09-27T05:10:34.880Z,8.53
2022-09-27T05:11:34.861Z,8.59
2022-09-27T05:12:34.889Z,8.53
2022-09-27T05:13:34.852Z,8.53
2022-09-27T05:14:34.863Z,8.53
2022-09-27T05:15:34.851Z,8.53
2022-09-27T05:16:34.968Z,8.53
2022-09-27T05:17:34.862Z,8.53
2022-09-27T05:18:34.841Z,8.53
2022-09-27T05:19:34.873Z,8.53
2022-09-27T05:20:34.891Z,8.53
2022-09-27T05:21:34.866Z,8.53
2022-09-27T05:22:34.875Z,8.53
2022-09-27T05:23:34.846Z,8.53
2022-09-27T05:24:34.873Z,8.53
2022-09-27T05:25:34.852Z,8.48
2022-09-27T05:26:34.864Z,8.48
2022-09-27T05:27:34.908Z,8.53
2022-09-27T05:28:34.901Z,8.53
2022-09-27T05:29:34.856Z,8.53
2022-09-27T05:30:34.928Z,8.53
2022-09-27T05:31:34.841Z,8.53
2022-09-27T05:32:34.858Z,8.53
2022-09-27T05:33:34.855Z,8.53
2022-09-27T05:34:34.865Z,8.53
2022-09-27T05:35:34.904Z,8.53
2022-09-27T05:36:34.903Z,8.53
2022-09-27T05:37:34.861Z,8.53
2022-09-27T05:38:34.853Z,8.53
2022-09-27T05:39:34.860Z,8.53
2022-09-27T05:40:42.649Z,8.48
2022-09-27T05:41:34.966Z,8.48
2022-09-27T05:42:34.862Z,8.48
2022-09-27T05:43:34.905Z,8.48
2022-09-27T05:44:34.860Z,8.48
2022-09-27T05:45:34.897Z,8.48
2022-09-27T05:46:34.965Z,8.48
2022-09-27T05:47:34.853Z,8.48
2022-09-27T05:48:34.850Z,8.42
2022-09-27T05:49:34.845Z,8.42
2022-09-27T05:50:34.866Z,8.48
2022-09-27T05:51:34.931Z,8.48
2022-09-27T05:52:34.908Z,8.48
2022-09-27T05:53:34.876Z,8.42
2022-09-27T05:54:34.838Z,8.42
2022-09-27T05:55:34.881Z,8.42
2022-09-27T05:56:34.845Z,8.48
2022-09-27T05:57:34.877Z,8.48
2022-09-27T05:58:34.882Z,8.48
2022-09-27T05:59:34.895Z,8.48
2022-09-27T06:00:34.864Z,8.48
2022-09-27T06:01:34.935Z,8.48
2022-09-27T06:02:34.903Z,8.48
2022-09-27T06:03:34.881Z,8.48
2022-09-27T06:04:34.839Z,8.48
2022-09-27T06:05:34.858Z,8.48
2022-09-27T06:06:34.920Z,8.48
2022-09-27T06:07:34.896Z,8.42
2022-09-27T06:08:34.866Z,8.42
2022-09-27T06:09:34.848Z,8.42
2022-09-27T06:10:34.856Z,8.42
2022-09-27T06:11:34.860Z,8.42
2022-09-27T06:12:34.867Z,8.42
2022-09-27T06:13:34.877Z,8.48
2022-09-27T06:14:34.894Z,8.48
2022-09-27T06:15:34.898Z,8.48
2022-09-27T06:16:34.890Z,8.48
2022-09-27T06:17:34.840Z,8.53
2022-09-27T06:18:34.843Z,8.53
2022-09-27T06:19:34.869Z,8.53
2022-09-27T06:20:34.859Z,8.59
2022-09-27T06:21:34.858Z,8.59
2022-09-27T06:22:34.887Z,8.59
2022-09-27T06:23:34.943Z,8.53
2022-09-27T06:24:34.863Z,8.53
2022-09-27T06:25:34.843Z,8.53
2022-09-27T06:26:34.845Z,8.53
2022-09-27T06:27:34.838Z,8.59
2022-09-27T06:28:34.837Z,8.53
2022-09-27T06:29:34.844Z,8.53
2022-09-27T06:30:35.022Z,8.53
2022-09-27T06:31:34.925Z,8.53
2022-09-27T06:32:34.850Z,8.59
2022-09-27T06:33:34.841Z,8.53
2022-09-27T06:34:34.857Z,8.53
2022-09-27T06:35:34.847Z,8.59
2022-09-27T06:36:34.848Z,8.64
2022-09-27T06:37:34.879Z,8.59
2022-09-27T06:38:34.903Z,8.59
2022-09-27T06:39:34.852Z,8.59
2022-09-27T06:40:34.998Z,8.59
2022-09-27T06:41:34.843Z,8.59
2022-09-27T06:42:34.861Z,8.59
2022-09-27T06:43:34.849Z,8.64
2022-09-27T06:44:34.862Z,8.64
2022-09-27T06:45:34.907Z,8.7
2022-09-27T06:46:34.898Z,8.7
2022-09-27T06:47:34.866Z,8.7
2022-09-27T06:48:34.947Z,8.7
2022-09-27T06:49:34.902Z,8.64
2022-09-27T06:50:34.852Z,8.64
2022-09-27T06:51:34.842Z,8.7
2022-09-27T06:52:34.860Z,8.7
2022-09-27T06:53:34.903Z,8.7
2022-09-27T06:54:34.886Z,8.7
2022-09-27T06:55:34.868Z,8.7
2022-09-27T06:56:34.862Z,8.75
2022-09-27T06:57:34.864Z,8.75
2022-09-27T06:58:34.864Z,8.7
2022-09-27T06:59:34.845Z,8.7
2022-09-27T07:00:34.848Z,8.7
2022-09-27T07:01:35.018Z,8.75
2022-09-27T07:02:34.885Z,8.75
2022-09-27T07:03:40.153Z,8.7
2022-09-27T07:04:34.841Z,8.64
2022-09-27T07:05:34.843Z,8.7
2022-09-27T07:06:34.848Z,8.7
2022-09-27T07:07:34.862Z,8.7
2022-09-27T07:08:34.848Z,8.75
2022-09-27T07:09:34.884Z,8.81
2022-09-27T07:10:34.896Z,8.87
2022-09-27T07:11:34.856Z,8.92
2022-09-27T07:12:34.850Z,8.98
2022-09-27T07:13:34.900Z,8.98
2022-09-27T07:14:34.844Z,8.98
2022-09-27T07:15:34.908Z,9.04
2022-09-27T07:16:34.953Z,9.04
2022-09-27T07:17:34.889Z,8.98
2022-09-27T07:18:34.850Z,8.98
2022-09-27T07:19:34.842Z,8.98
2022-09-27T07:20:34.846Z,9.04
2022-09-27T07:21:34.836Z,9.04
2022-09-27T07:22:34.850Z,9.1
2022-09-27T07:23:34.845Z,9.04
2022-09-27T07:24:34.911Z,9.04
2022-09-27T07:25:34.882Z,9.04
2022-09-27T07:26:34.879Z,9.1
2022-09-27T07:27:38.394Z,9.04
2022-09-27T07:28:34.851Z,9.04
2022-09-27T07:29:34.848Z,9.1
2022-09-27T07:30:34.888Z,9.1
2022-09-27T07:31:34.839Z,9.1
2022-09-27T07:32:34.902Z,9.1
2022-09-27T07:33:34.890Z,9.04
2022-09-27T07:34:34.838Z,9.04
2022-09-27T07:35:34.848Z,9.1
2022-09-27T07:36:34.843Z,9.1
2022-09-27T07:37:34.834Z,9.04
2022-09-27T07:38:34.857Z,9.04
2022-09-27T07:39:34.860Z,9.1
2022-09-27T07:40:34.980Z,9.15
2022-09-27T07:41:34.876Z,9.15
2022-09-27T07:42:34.834Z,9.15
2022-09-27T07:43:34.824Z,9.04
2022-09-27T07:44:34.831Z,8.98
2022-09-27T07:45:34.924Z,9.04
2022-09-27T07:46:34.836Z,8.98
2022-09-27T07:47:34.833Z,8.98
2022-09-27T07:48:34.884Z,9.04
2022-09-27T07:49:34.854Z,9.04
2022-09-27T07:50:34.869Z,9.04
2022-09-27T07:51:34.838Z,8.98
2022-09-27T07:52:34.911Z,9.04
2022-09-27T07:53:34.866Z,9.04
2022-09-27T07:54:34.837Z,9.1
2022-09-27T07:55:34.867Z,9.1
2022-09-27T07:56:34.908Z,9.15
2022-09-27T07:57:34.862Z,9.15
2022-09-27T07:58:34.838Z,9.15
2022-09-27T07:59:34.838Z,9.15
2022-09-27T08:00:34.835Z,9.21
2022-09-27T08:01:34.929Z,9.15
2022-09-27T08:02:34.909Z,9.15
2022-09-27T08:03:34.883Z,9.15
2022-09-27T08:04:34.932Z,9.1
2022-09-27T08:05:34.862Z,9.1
2022-09-27T08:06:34.851Z,9.1
2022-09-27T08:07:34.841Z,9.1
2022-09-27T08:08:34.829Z,9.1
2022-09-27T08:09:34.836Z,9.1
2022-09-27T08:10:34.837Z,9.1
2022-09-27T08:11:34.884Z,9.15
2022-09-27T08:12:34.898Z,9.15
2022-09-27T08:13:34.850Z,9.21
2022-09-27T08:14:40.995Z,9.27
2022-09-27T08:15:34.852Z,9.15
2022-09-27T08:16:34.947Z,9.15
2022-09-27T08:17:34.844Z,9.1
2022-09-27T08:18:34.834Z,9.15
2022-09-27T08:19:34.879Z,9.21
2022-09-27T08:20:34.869Z,9.15
2022-09-27T08:21:34.842Z,9.21
2022-09-27T08:22:34.926Z,9.21
2022-09-27T08:23:34.959Z,9.27
2022-09-27T08:24:35.018Z,9.33
2022-09-27T08:25:34.827Z,9.33
2022-09-27T08:26:34.829Z,9.33
2022-09-27T08:27:34.874Z,9.27
2022-09-27T08:28:34.862Z,9.33
2022-09-27T08:29:34.828Z,9.39
2022-09-27T08:30:34.835Z,9.45
2022-09-27T08:31:34.880Z,9.45
2022-09-27T08:32:34.840Z,9.39
2022-09-27T08:33:40.493Z,9.45
2022-09-27T08:34:34.849Z,9.51
2022-09-27T08:35:34.877Z,9.45
2022-09-27T08:36:34.836Z,9.51
2022-09-27T08:37:34.872Z,9.51
2022-09-27T08:38:34.845Z,9.51
2022-09-27T08:39:34.840Z,9.57
2022-09-27T08:40:34.883Z,9.51
2022-09-27T08:41:34.833Z,9.57
2022-09-27T08:42:34.884Z,9.57
2022-09-27T08:43:34.878Z,9.57
2022-09-27T08:44:34.835Z,9.57
2022-09-27T08:45:34.879Z,9.57
2022-09-27T08:46:34.852Z,9.63
2022-09-27T08:47:34.837Z,9.63
2022-09-27T08:48:34.853Z,9.63
2022-09-27T08:49:34.835Z,9.57
2022-09-27T08:50:38.993Z,9.57
2022-09-27T08:51:34.878Z,9.57
2022-09-27T08:52:34.855Z,9.51
2022-09-27T08:53:34.844Z,9.51
2022-09-27T08:54:34.857Z,9.51
2022-09-27T08:55:34.828Z,9.51
2022-09-27T08:56:34.825Z,9.45
2022-09-27T08:57:34.845Z,9.51
2022-09-27T08:58:34.907Z,9.45
2022-09-27T08:59:34.953Z,9.51
2022-09-27T09:00:34.836Z,9.51
2022-09-27T09:01:34.945Z,9.51
2022-09-27T09:02:34.879Z,9.51
2022-09-27T09:03:34.829Z,9.45
2022-09-27T09:04:34.838Z,9.45
2022-09-27T09:05:34.852Z,9.45
2022-09-27T09:06:34.885Z,9.51
2022-09-27T09:07:34.837Z,9.39
2022-09-27T09:08:37.486Z,9.27
2022-09-27T09:09:34.837Z,9.33
2022-09-27T09:10:34.832Z,9.27
2022-09-27T09:11:34.825Z,9.21
2022-09-27T09:12:34.857Z,9.27
2022-09-27T09:13:34.865Z,9.27
2022-09-27T09:14:34.878Z,9.33
2022-09-27T09:15:34.840Z,9.27
2022-09-27T09:16:34.909Z,9.27
2022-09-27T09:17:34.820Z,9.33
2022-09-27T09:18:34.828Z,9.39
2022-09-27T09:19:34.837Z,9.39
2022-09-27T09:20:34.829Z,9.45
2022-09-27T09:21:34.876Z,9.51
2022-09-27T09:22:34.873Z,9.51
2022-09-27T09:23:34.841Z,9.57
2022-09-27T09:24:34.830Z,9.57
2022-09-27T09:25:34.855Z,9.57
2022-09-27T09:26:34.828Z,9.57
2022-09-27T09:27:34.853Z,9.57
2022-09-27T09:28:34.837Z,9.57
2022-09-27T09:29:34.881Z,9.63
2022-09-27T09:30:34.880Z,9.57
2022-09-27T09:31:34.867Z,9.63
2022-09-27T09:32:34.847Z,9.63
2022-09-27T09:33:34.892Z,9.63
2022-09-27T09:34:34.828Z,9.63
2022-09-27T09:35:34.831Z,9.63
2022-09-27T09:36:34.835Z,9.69
2022-09-27T09:37:34.892Z,9.69
2022-09-27T09:38:34.835Z,9.76
2022-09-27T09:39:34.836Z,9.88
2022-09-27T09:40:34.856Z,10.07
2022-09-27T09:41:34.832Z,10.2
2022-09-27T09:42:34.827Z,10.26
2022-09-27T09:43:34.832Z,10.26
2022-09-27T09:44:34.849Z,10.32
2022-09-27T09:45:34.932Z,10.52
2022-09-27T09:46:34.830Z,10.59
2022-09-27T09:47:34.846Z,10.59
2022-09-27T09:48:34.842Z,10.65
2022-09-27T09:49:34.831Z,10.79
2022-09-27T09:50:34.831Z,10.79
2022-09-27T09:51:34.843Z,10.79
2022-09-27T09:52:34.893Z,10.79
2022-09-27T09:53:34.883Z,10.72
2022-09-27T09:54:34.840Z,10.65
2022-09-27T09:55:34.836Z,10.65
2022-09-27T09:56:34.836Z,10.65
2022-09-27T09:57:34.838Z,10.72
2022-09-27T09:58:34.855Z,10.65
2022-09-27T09:59:34.843Z,10.72
2022-09-27T10:00:34.884Z,10.65
2022-09-27T10:01:34.900Z,10.72
2022-09-27T10:02:34.901Z,10.65
2022-09-27T10:03:34.840Z,10.72
2022-09-27T10:04:34.841Z,10.65
2022-09-27T10:05:34.823Z,10.65
2022-09-27T10:06:34.839Z,10.72
2022-09-27T10:07:34.829Z,10.79
2022-09-27T10:08:34.895Z,10.92
2022-09-27T10:09:34.827Z,11.06
2022-09-27T10:10:34.833Z,11.2
2022-09-27T10:11:34.837Z,11.13
2022-09-27T10:12:34.902Z,11.13
2022-09-27T10:13:34.819Z,11.06
2022-09-27T10:14:34.835Z,11.2
2022-09-27T10:15:34.850Z,11.2
2022-09-27T10:16:34.899Z,11.34
2022-09-27T10:17:34.822Z,11.13
2022-09-27T10:18:34.835Z,11.2
2022-09-27T10:19:34.843Z,11.06
2022-09-27T10:20:34.833Z,11.06
2022-09-27T10:21:34.824Z,10.92
2022-09-27T10:22:34.844Z,10.79
2022-09-27T10:23:34.917Z,10.65
2022-09-27T10:24:34.870Z,10.59
2022-09-27T10:25:34.839Z,10.59
2022-09-27T10:26:34.839Z,10.59
2022-09-27T10:27:34.822Z,10.72
2022-09-27T10:28:34.839Z,10.79
2022-09-27T10:29:37.548Z,10.85
2022-09-27T10:30:34.825Z,10.79
2022-09-27T10:31:34.923Z,10.79
2022-09-27T10:32:34.900Z,10.79
2022-09-27T10:33:34.821Z,10.79
2022-09-27T10:34:34.846Z,10.79
2022-09-27T10:35:34.824Z,10.79
2022-09-27T10:36:34.817Z,10.85
2022-09-27T10:37:34.902Z,10.79
2022-09-27T10:38:34.822Z,10.72
2022-09-27T10:39:34.884Z,10.72
2022-09-27T10:40:34.907Z,10.72
2022-09-27T10:41:34.834Z,10.59
2022-09-27T10:42:34.833Z,10.46
2022-09-27T10:43:34.848Z,10.52
2022-09-27T10:44:34.829Z,10.52
2022-09-27T10:45:34.884Z,10.52
2022-09-27T10:46:34.837Z,10.46
2022-09-27T10:47:34.893Z,10.39
2022-09-27T10:48:34.972Z,10.39
2022-09-27T10:49:35.147Z,10.39
2022-09-27T10:50:52.900Z,10.52
2022-09-27T10:51:34.934Z,10.59
2022-09-27T10:52:35.058Z,10.65
2022-09-27T10:53:34.899Z,10.59
2022-09-27T10:54:34.921Z,10.46
2022-09-27T10:55:34.952Z,10.46
2022-09-27T10:56:34.951Z,10.59
2022-09-27T10:57:34.823Z,10.59
2022-09-27T10:58:34.830Z,10.59
2022-09-27T10:59:34.828Z,10.65
2022-09-27T11:00:34.827Z,10.72
2022-09-27T11:01:34.829Z,10.79
2022-09-27T11:02:34.910Z,10.85
2022-09-27T11:03:34.904Z,10.79
2022-09-27T11:04:34.892Z,10.79
2022-09-27T11:05:34.943Z,10.92
2022-09-27T11:06:34.824Z,10.92
2022-09-27T11:07:34.826Z,10.85
2022-09-27T11:08:34.827Z,10.85
2022-09-27T11:09:34.836Z,10.99
2022-09-27T11:10:37.396Z,10.99
2022-09-27T11:11:34.858Z,10.99
2022-09-27T11:12:34.826Z,10.92
2022-09-27T11:13:34.825Z,10.79
2022-09-27T11:14:34.823Z,10.79
2022-09-27T11:15:34.821Z,10.72
2022-09-27T11:16:34.925Z,10.79
2022-09-27T11:17:34.843Z,10.85
2022-09-27T11:18:34.874Z,10.85
2022-09-27T11:19:34.900Z,10.99
2022-09-27T11:20:34.837Z,10.99
2022-09-27T11:21:34.839Z,11.06
2022-09-27T11:22:34.840Z,11.13
2022-09-27T11:23:34.815Z,11.27
2022-09-27T11:24:34.847Z,11.27
2022-09-27T11:25:34.837Z,11.27
2022-09-27T11:26:34.901Z,11.2
2022-09-27T11:27:34.823Z,11.2
2022-09-27T11:28:34.847Z,11.2
2022-09-27T11:29:34.823Z,11.2
2022-09-27T11:30:34.841Z,11.2
2022-09-27T11:31:34.959Z,11.2
2022-09-27T11:32:34.832Z,11.2
2022-09-27T11:33:34.836Z,11.06
2022-09-27T11:34:34.899Z,10.99
2022-09-27T11:35:34.832Z,10.92
2022-09-27T11:36:34.872Z,10.92
2022-09-27T11:37:34.824Z,10.92
2022-09-27T11:38:52.263Z,10.99
2022-09-27T11:39:34.828Z,10.99
2022-09-27T11:40:34.926Z,10.99
2022-09-27T11:41:34.874Z,10.85
2022-09-27T11:42:34.867Z,10.79
2022-09-27T11:43:34.817Z,10.65
2022-09-27T11:44:34.829Z,10.46
2022-09-27T11:46:03.346Z,10.39
2022-09-27T11:46:41.178Z,10.39
2022-09-27T11:47:34.968Z,10.39
2022-09-27T11:48:34.829Z,10.39
2022-09-27T11:49:34.870Z,10.39
2022-09-27T11:50:34.880Z,10.39
2022-09-27T11:51:34.828Z,10.46
2022-09-27T11:52:34.824Z,10.52
2022-09-27T11:53:34.869Z,10.52
2022-09-27T11:54:34.822Z,10.59
2022-09-27T11:55:34.829Z,10.59
2022-09-27T11:56:34.840Z,10.65
2022-09-27T11:57:34.873Z,10.72
2022-09-27T11:58:34.835Z,10.65
2022-09-27T11:59:34.833Z,10.59
2022-09-27T12:00:34.821Z,10.59
2022-09-27T12:01:34.873Z,10.59
2022-09-27T12:02:34.873Z,10.59
2022-09-27T12:03:34.825Z,10.52
2022-09-27T12:04:34.858Z,10.59
2022-09-27T12:05:34.908Z,10.65
2022-09-27T12:06:34.839Z,10.72
2022-09-27T12:07:34.846Z,10.79
2022-09-27T12:08:34.823Z,10.85
2022-09-27T12:09:34.837Z,10.92
2022-09-27T12:10:34.835Z,10.99
2022-09-27T12:11:34.826Z,11.06
2022-09-27T12:12:34.888Z,11.34
2022-09-27T12:13:34.876Z,11.55
2022-09-27T12:14:34.821Z,11.62
2022-09-27T12:15:34.944Z,11.69
2022-09-27T12:16:34.820Z,11.54
2022-09-27T12:17:34.818Z,11.3
2022-09-27T12:18:34.839Z,10.89
2022-09-27T12:19:34.828Z,10.99
2022-09-27T12:20:34.877Z,11.14
2022-09-27T12:21:34.883Z,11.24
2022-09-27T12:22:57.637Z,11.14
2022-09-27T12:23:36.753Z,10.89
2022-09-27T12:24:34.822Z,11.07
2022-09-27T12:25:34.824Z,10.93
2022-09-27T12:26:34.817Z,10.9
2022-09-27T12:27:34.819Z,10.97
2022-09-27T12:28:34.871Z,10.55
2022-09-27T12:29:34.911Z,10.8
2022-09-27T12:30:34.821Z,10.37
2022-09-27T12:31:34.879Z,10.54
2022-09-27T12:32:34.835Z,10.63
2022-09-27T12:33:34.858Z,10.8
2022-09-27T12:34:34.822Z,10.89
2022-09-27T12:35:34.835Z,10.69
2022-09-27T12:36:38.394Z,10.43
2022-09-27T12:37:34.820Z,10.68
2022-09-27T12:38:34.916Z,10.49
2022-09-27T12:39:34.877Z,10.53
2022-09-27T12:40:34.970Z,10.77
2022-09-27T12:41:34.863Z,10.57
2022-09-27T12:42:34.819Z,11.09
2022-09-27T12:43:34.904Z,11.21
2022-09-27T12:44:35.006Z,11
2022-09-27T12:45:34.890Z,10.96
2022-09-27T12:46:35.083Z,11.02
2022-09-27T12:47:34.948Z,10.85
2022-09-27T12:48:34.979Z,10.79
2022-09-27T12:49:35.133Z,10.92
2022-09-27T12:50:35.124Z,10.85
2022-09-27T12:51:34.879Z,10.79
2022-09-27T12:52:34.872Z,10.79
2022-09-27T12:53:34.828Z,10.79
2022-09-27T12:54:34.841Z,10.72
2022-09-27T12:55:34.836Z,10.65
2022-09-27T12:56:34.821Z,10.52
2022-09-27T12:57:34.841Z,10.52
2022-09-27T12:58:34.825Z,10.52
2022-09-27T12:59:34.876Z,10.46
2022-09-27T13:00:34.868Z,10.46
2022-09-27T13:01:35.003Z,10.32
2022-09-27T13:02:34.968Z,10.32
2022-09-27T13:03:34.825Z,10.26
2022-09-27T13:04:34.830Z,10.2
2022-09-27T13:05:34.905Z,10.2
2022-09-27T13:06:34.871Z,10.26
2022-09-27T13:07:34.932Z,10.32
2022-09-27T13:08:34.843Z,10.32
2022-09-27T13:09:34.830Z,10.2
2022-09-27T13:10:34.826Z,10.13
2022-09-27T13:11:34.823Z,10.13
2022-09-27T13:12:34.826Z,10.13
2022-09-27T13:13:36.728Z,10.13
2022-09-27T13:14:34.849Z,10.2